Station Historical Data
Daily Summary for October 8, 2017 Units:  Metric    English   Both
« Previous Day
Next Day »
Daily Weekly Monthly Yearly Custom
  High: Low: Average:
Temperature: 24.9 °C 16.6 °C 20.2 °C
Dew Point: 18.1 °C 14.3 °C 15.6 °C
Humidity: 88% 61% 75%
Wind Speed: 30.6km/h 0km/h 9.2km/h
Wind Gust: 48.3km/h - -
Wind- - SW
Pressure: 1012.8 hPa 1002.6 hPa -
Precipitation: 0 mm    
Historical Graphs
 
 
Tabular Data for October 8, 2017
Time Temperature Dew Point Pressure Wind Wind Speed Wind Gust Humidity Rainfall Rate (Hourly)
00:04 23.9 °C 16.4 °C 1004.6 hPa South 4.8 km/h 25.7 km/h 63% 0 mm
00:09 23.9 °C 16.4 °C 1004.6 hPa South 9.7 km/h 25.7 km/h 63% 0 mm
00:14 24 °C 16.5 °C 1004.6 hPa South 9.7 km/h 20.9 km/h 63% 0 mm
00:19 24.1 °C 16.6 °C 1004.3 hPa SW 12.9 km/h 17.7 km/h 63% 0 mm
00:24 24.1 °C 16.6 °C 1004.3 hPa SW 14.5 km/h 30.6 km/h 63% 0 mm
00:29 24.2 °C 16.7 °C 1004.3 hPa ESE 4.8 km/h 30.6 km/h 63% 0 mm
00:34 24.2 °C 16.4 °C 1003.9 hPa SW 12.9 km/h 27.4 km/h 62% 0 mm
00:39 24.3 °C 16.6 °C 1003.9 hPa South 9.7 km/h 27.4 km/h 62% 0 mm
00:44 24.3 °C 16.6 °C 1003.9 hPa South 11.3 km/h 25.7 km/h 62% 0 mm
00:49 24.3 °C 16.6 °C 1003.9 hPa South 11.3 km/h 24.1 km/h 62% 0 mm
00:54 24.4 °C 16.6 °C 1003.9 hPa South 11.3 km/h 24.1 km/h 62% 0 mm
00:59 24.3 °C 16.6 °C 1003.9 hPa South 9.7 km/h 19.3 km/h 62% 0 mm
01:05 24.3 °C 16.6 °C 1003.6 hPa South 8 km/h 32.2 km/h 62% 0 mm
01:10 24.4 °C 16.6 °C 1003.6 hPa SSW 6.4 km/h 25.7 km/h 62% 0 mm
01:15 24.4 °C 16.6 °C 1003.6 hPa South 6.4 km/h 25.7 km/h 62% 0 mm
01:20 24.4 °C 16.6 °C 1003.6 hPa SSW 14.5 km/h 19.3 km/h 62% 0 mm
01:25 24.4 °C 16.7 °C 1003.6 hPa SSW 11.3 km/h 20.9 km/h 62% 0 mm
01:30 24.5 °C 16.5 °C 1003.6 hPa South 11.3 km/h 27.4 km/h 61% 0 mm
01:35 24.5 °C 16.5 °C 1003.6 hPa SSW 11.3 km/h 27.4 km/h 61% 0 mm
01:40 24.6 °C 16.6 °C 1003.6 hPa SSW 11.3 km/h 27.4 km/h 61% 0 mm
01:45 24.6 °C 16.6 °C 1003.6 hPa SSW 9.7 km/h 29 km/h 61% 0 mm
01:50 24.6 °C 16.6 °C 1003.6 hPa SSW 9.7 km/h 29 km/h 61% 0 mm
01:55 24.7 °C 16.7 °C 1003.6 hPa SSW 11.3 km/h 32.2 km/h 61% 0 mm
02:00 24.8 °C 16.7 °C 1003.3 hPa SSW 12.9 km/h 32.2 km/h 61% 0 mm
02:05 24.8 °C 16.8 °C 1003.3 hPa SSW 12.9 km/h 32.2 km/h 61% 0 mm
02:10 24.9 °C 16.9 °C 1003.3 hPa South 12.9 km/h 32.2 km/h 61% 0 mm
02:15 24.9 °C 16.8 °C 1003.3 hPa WSW 3.2 km/h 22.5 km/h 61% 0 mm
02:20 24.8 °C 16.8 °C 1003.3 hPa South 8 km/h 20.9 km/h 61% 0 mm
02:25 24.9 °C 16.8 °C 1003.3 hPa SSW 4.8 km/h 24.1 km/h 61% 0 mm
02:30 24.9 °C 16.9 °C 1003.3 hPa SW 3.2 km/h 22.5 km/h 61% 0 mm
02:35 24.9 °C 17.2 °C 1003.6 hPa SSW 11.3 km/h 33.8 km/h 62% 0 mm
02:40 24.6 °C 18 °C 1003.3 hPa SSW 14.5 km/h 40.2 km/h 67% 0 mm
02:45 23.8 °C 18.1 °C 1003.6 hPa SSE 16.1 km/h 29 km/h 70% 0 mm
02:50 23.3 °C 18 °C 1003.3 hPa SW 14.5 km/h 32.2 km/h 72% 0.25 mm
02:55 23.1 °C 17.9 °C 1003.6 hPa SSW 12.9 km/h 29 km/h 73% 0.25 mm
03:00 22.8 °C 17.7 °C 1003.3 hPa SSW 11.3 km/h 32.2 km/h 73% 0.25 mm
03:10 22.3 °C 17.6 °C 1003.3 hPa SSW 14.5 km/h 35.4 km/h 75% 0.76 mm
03:15 21.9 °C 17.7 °C 1002.9 hPa SSW 12.9 km/h 35.4 km/h 77% 1.02 mm
03:20 21.6 °C 17.8 °C 1002.9 hPa SSW 11.3 km/h 29 km/h 79% 1.02 mm
03:25 21.4 °C 17.8 °C 1002.6 hPa South 11.3 km/h 29 km/h 80% 1.02 mm
03:30 21.4 °C 17.8 °C 1002.9 hPa South 12.9 km/h 25.7 km/h 80% 1.02 mm
03:35 21.4 °C 17.8 °C 1002.9 hPa SSW 8 km/h 24.1 km/h 80% 1.02 mm
03:40 21.4 °C 17.8 °C 1002.9 hPa South 8 km/h 30.6 km/h 80% 1.02 mm
03:45 21.4 °C 17.8 °C 1002.9 hPa SSE 8 km/h 32.2 km/h 80% 1.02 mm
03:50 21.6 °C 17.9 °C 1002.9 hPa SSW 19.3 km/h 29 km/h 80% 0.76 mm
03:55 21.6 °C 17.8 °C 1002.9 hPa South 20.9 km/h 33.8 km/h 79% 0.76 mm
04:00 21.8 °C 18 °C 1002.9 hPa WSW 19.3 km/h 25.7 km/h 79% 1.02 mm
04:05 21.7 °C 18.1 °C 1002.9 hPa South 3.2 km/h 33.8 km/h 80% 0.76 mm
04:15 21.7 °C 17.9 °C 1002.9 hPa SSW 12.9 km/h 41.8 km/h 79% 0.25 mm
04:20 21.8 °C 18 °C 1002.9 hPa SSW 11.3 km/h 30.6 km/h 79% 0.25 mm
04:25 21.9 °C 17.9 °C 1002.9 hPa SSW 14.5 km/h 43.5 km/h 78% 0.25 mm
04:30 22 °C 18 °C 1002.6 hPa SSW 14.5 km/h 32.2 km/h 78% 0.25 mm
04:35 22.1 °C 18.1 °C 1002.9 hPa SSW 12.9 km/h 32.2 km/h 78% 0.25 mm
04:40 22 °C 18 °C 1002.9 hPa SSW 14.5 km/h 32.2 km/h 78% 0.25 mm
04:45 22 °C 18 °C 1002.9 hPa SSW 12.9 km/h 27.4 km/h 78% 0.25 mm
04:50 22 °C 18 °C 1002.6 hPa SSW 14.5 km/h 33.8 km/h 78% 0.25 mm
04:55 22.1 °C 17.8 °C 1002.9 hPa WSW 19.3 km/h 29 km/h 77% 0.25 mm
05:00 22.1 °C 18.1 °C 1002.9 hPa SW 6.4 km/h 35.4 km/h 78% 0 mm
05:05 22.1 °C 18.1 °C 1002.9 hPa WSW 11.3 km/h 29 km/h 78% 0 mm
05:10 22.1 °C 18.1 °C 1002.9 hPa SSW 12.9 km/h 32.2 km/h 78% 0 mm
05:15 22.1 °C 18.1 °C 1003.3 hPa SSW 14.5 km/h 32.2 km/h 78% 0 mm
05:20 22.1 °C 18.1 °C 1003.3 hPa South 14.5 km/h 29 km/h 78% 0 mm
05:25 22 °C 18 °C 1004.3 hPa West 11.3 km/h 37 km/h 78% 0 mm
05:30 21.6 °C 17.6 °C 1004.3 hPa WSW 30.6 km/h 43.5 km/h 78% 0.25 mm
05:35 21 °C 17 °C 1004.6 hPa WSW 16.1 km/h 40.2 km/h 78% 0.25 mm
05:39 20.6 °C 16.4 °C 1004.6 hPa WSW 20.9 km/h 48.3 km/h 77% 0.25 mm
05:45 20.3 °C 16.1 °C 1004.6 hPa WSW 19.3 km/h 48.3 km/h 77% 0.25 mm
05:50 20.1 °C 15.7 °C 1005 hPa WSW 19.3 km/h 45.1 km/h 76% 0.25 mm
05:55 20.1 °C 15.9 °C 1005 hPa WSW 19.3 km/h 46.7 km/h 77% 0.25 mm
06:00 19.9 °C 15.8 °C 1005.3 hPa WSW 19.3 km/h 46.7 km/h 77% 0.25 mm
06:05 19.9 °C 15.7 °C 1005.3 hPa WSW 17.7 km/h 37 km/h 77% 0.25 mm
06:10 19.8 °C 15.9 °C 1005.6 hPa WSW 17.7 km/h 35.4 km/h 78% 0.25 mm
06:15 19.8 °C 15.9 °C 1005.6 hPa West 14.5 km/h 37 km/h 78% 0.25 mm
06:19 19.8 °C 15.9 °C 1005.6 hPa WNW 17.7 km/h 32.2 km/h 78% 0.25 mm
06:25 19.8 °C 15.8 °C 1005.6 hPa WSW 11.3 km/h 33.8 km/h 78% 0.25 mm
06:30 19.7 °C 15.8 °C 1006 hPa WSW 16.1 km/h 30.6 km/h 78% 0 mm
06:35 19.8 °C 15.8 °C 1006 hPa West 9.7 km/h 32.2 km/h 78% 0 mm
06:40 19.7 °C 15.8 °C 1006 hPa WSW 16.1 km/h 43.5 km/h 78% 0 mm
06:44 19.7 °C 15.7 °C 1006.3 hPa WSW 16.1 km/h 43.5 km/h 78% 0 mm
06:50 19.7 °C 15.7 °C 1006.3 hPa WSW 12.9 km/h 30.6 km/h 78% 0 mm
06:55 19.7 °C 15.5 °C 1006.7 hPa WNW 25.7 km/h 30.6 km/h 77% 0 mm
07:00 19.6 °C 15.4 °C 1006.7 hPa WSW 16.1 km/h 33.8 km/h 77% 0 mm
07:05 19.6 °C 15.2 °C 1006.7 hPa WSW 8 km/h 29 km/h 76% 0 mm
07:09 19.5 °C 15.3 °C 1006.7 hPa West 12.9 km/h 29 km/h 77% 0 mm
07:14 19.4 °C 15.7 °C 1006.7 hPa WSW 12.9 km/h 27.4 km/h 79% 0 mm
07:20 19.4 °C 15.7 °C 1007 hPa WSW 16.1 km/h 37 km/h 79% 0 mm
07:25 19.3 °C 15.3 °C 1007 hPa WSW 17.7 km/h 45.1 km/h 78% 0 mm
07:30 19.3 °C 15.3 °C 1007 hPa WSW 16.1 km/h 45.1 km/h 78% 0 mm
07:35 19.3 °C 15.3 °C 1007.3 hPa WSW 17.7 km/h 32.2 km/h 78% 0 mm
07:39 19.3 °C 15.2 °C 1007.3 hPa WSW 9.7 km/h 33.8 km/h 77% 0 mm
07:45 19.3 °C 15.2 °C 1007.3 hPa WSW 14.5 km/h 32.2 km/h 77% 0 mm
07:50 19.3 °C 15.2 °C 1007.7 hPa SSW 17.7 km/h 29 km/h 77% 0 mm
07:55 19.3 °C 15.2 °C 1007.7 hPa SW 14.5 km/h 29 km/h 77% 0 mm
07:59 19.3 °C 15.2 °C 1007.7 hPa WSW 11.3 km/h 17.7 km/h 77% 0 mm
08:05 19.3 °C 15.3 °C 1007.3 hPa WSW 14.5 km/h 17.7 km/h 78% 0 mm
08:10 19.3 °C 15.6 °C 1007.7 hPa West 17.7 km/h 27.4 km/h 79% 0 mm
08:15 19.4 °C 15.7 °C 1007.7 hPa WSW 14.5 km/h 29 km/h 79% 0 mm
08:20 19.4 °C 15.5 °C 1007.7 hPa WSW 16.1 km/h 30.6 km/h 78% 0 mm
08:25 19.6 °C 15.4 °C 1007.7 hPa WSW 14.5 km/h 30.6 km/h 77% 0 mm
08:30 19.7 °C 15.5 °C 1007.7 hPa WSW 14.5 km/h 30.6 km/h 77% 0 mm
08:35 19.8 °C 15.6 °C 1008 hPa WSW 16.1 km/h 35.4 km/h 77% 0 mm
08:40 19.7 °C 15.5 °C 1008 hPa WSW 16.1 km/h 30.6 km/h 77% 0 mm
08:44 19.7 °C 15.5 °C 1007.7 hPa WSW 16.1 km/h 37 km/h 77% 0 mm
08:49 19.6 °C 15.3 °C 1008 hPa WNW 22.5 km/h 35.4 km/h 76% 0 mm
08:54 19.6 °C 15.3 °C 1008 hPa WSW 14.5 km/h 33.8 km/h 76% 0 mm
08:59 19.7 °C 15.3 °C 1008.4 hPa West 8 km/h 24.1 km/h 76% 0 mm
09:04 19.7 °C 15.2 °C 1008.4 hPa WSW 17.7 km/h 25.7 km/h 75% 0 mm
09:09 19.7 °C 14.9 °C 1008.7 hPa SW 11.3 km/h 24.1 km/h 74% 0 mm
09:14 19.7 °C 14.9 °C 1008.7 hPa WSW 12.9 km/h 35.4 km/h 74% 0 mm
09:25 19.8 °C 15.3 °C 1009 hPa WSW 16.1 km/h 35.4 km/h 75% 0 mm
09:30 19.8 °C 15 °C 1009 hPa WSW 14.5 km/h 32.2 km/h 74% 0 mm
09:35 19.8 °C 15.3 °C 1009 hPa West 8 km/h 22.5 km/h 75% 0 mm
09:40 19.8 °C 15.2 °C 1009.4 hPa West 19.3 km/h 32.2 km/h 75% 0 mm
09:45 19.7 °C 15.2 °C 1009.4 hPa West 12.9 km/h 32.2 km/h 75% 0 mm
09:49 19.7 °C 15.1 °C 1009.4 hPa West 14.5 km/h 24.1 km/h 75% 0 mm
09:55 19.7 °C 15.2 °C 1009.4 hPa West 11.3 km/h 24.1 km/h 75% 0 mm
10:00 19.9 °C 15.2 °C 1009.4 hPa West 11.3 km/h 25.7 km/h 74% 0 mm
10:05 20.2 °C 15 °C 1009.7 hPa West 12.9 km/h 30.6 km/h 72% 0 mm
10:10 20.2 °C 15 °C 1009.7 hPa West 12.9 km/h 30.6 km/h 72% 0 mm
10:14 20.1 °C 15.1 °C 1009.7 hPa WSW 8 km/h 19.3 km/h 73% 0 mm
10:19 20 °C 14.8 °C 1009.7 hPa WNW 3.2 km/h 14.5 km/h 72% 0 mm
10:24 19.8 °C 14.8 °C 1010 hPa WSW 8 km/h 22.5 km/h 73% 0 mm
10:30 19.7 °C 14.9 °C 1010 hPa WSW 6.4 km/h 25.7 km/h 74% 0 mm
10:34 19.7 °C 14.9 °C 1010 hPa West 8 km/h 22.5 km/h 74% 0 mm
10:40 19.8 °C 15.1 °C 1010.4 hPa WNW 8 km/h 24.1 km/h 74% 0 mm
10:44 20 °C 15.2 °C 1010.4 hPa WSW 9.7 km/h 24.1 km/h 74% 0 mm
10:49 20.1 °C 15.3 °C 1010.4 hPa WSW 9.7 km/h 24.1 km/h 74% 0 mm
10:55 20.1 °C 15.1 °C 1010.4 hPa West 9.7 km/h 20.9 km/h 73% 0 mm
11:00 20.1 °C 14.9 °C 1010.4 hPa WSW 12.9 km/h 24.1 km/h 72% 0 mm
11:05 20.1 °C 15.1 °C 1010.4 hPa SW 4.8 km/h 22.5 km/h 73% 0 mm
11:10 20.1 °C 14.8 °C 1010.7 hPa WSW 11.3 km/h 22.5 km/h 72% 0 mm
11:15 20.1 °C 14.9 °C 1010.7 hPa WSW 11.3 km/h 25.7 km/h 72% 0 mm
11:19 20.3 °C 14.8 °C 1010.7 hPa WSW 12.9 km/h 22.5 km/h 71% 0 mm
11:29 20.3 °C 14.6 °C 1011.1 hPa West 9.7 km/h 29 km/h 70% 0 mm
11:34 20.5 °C 15.1 °C 1011.1 hPa WSW 24.1 km/h 32.2 km/h 71% 0.25 mm
11:40 20.4 °C 14.9 °C 1011.1 hPa West 9.7 km/h 24.1 km/h 71% 0.25 mm
11:44 20.5 °C 15.3 °C 1011.1 hPa WSW 12.9 km/h 24.1 km/h 72% 0.25 mm
11:49 20.3 °C 15.1 °C 1011.1 hPa WSW 11.3 km/h 29 km/h 72% 0.25 mm
11:55 20.2 °C 15 °C 1011.1 hPa WSW 11.3 km/h 29 km/h 72% 0.25 mm
12:00 20.1 °C 15.1 °C 1011.1 hPa WSW 12.9 km/h 30.6 km/h 73% 0.25 mm
12:05 20.4 °C 15.2 °C 1011.1 hPa WSW 12.9 km/h 30.6 km/h 72% 0.25 mm
12:10 20.7 °C 15.4 °C 1011.4 hPa WSW 12.9 km/h 25.7 km/h 72% 0.25 mm
12:14 20.7 °C 15.3 °C 1011.4 hPa WSW 12.9 km/h 25.7 km/h 71% 0.25 mm
12:19 20.6 °C 14.7 °C 1011.4 hPa SW 29 km/h 29 km/h 69% 0.25 mm
12:24 20.3 °C 14.9 °C 1011.7 hPa WSW 12.9 km/h 29 km/h 71% 0.25 mm
12:29 20.4 °C 15.2 °C 1011.7 hPa SW 11.3 km/h 22.5 km/h 72% 0.25 mm
12:35 21.5 °C 16 °C 1011.7 hPa SW 8 km/h 24.1 km/h 71% 0 mm
12:39 21.5 °C 14.9 °C 1011.7 hPa WSW 16.1 km/h 25.7 km/h 66% 0 mm
12:44 20.7 °C 14.8 °C 1012.1 hPa WSW 12.9 km/h 29 km/h 69% 0 mm
12:49 20.2 °C 14.6 °C 1012.1 hPa WSW 12.9 km/h 29 km/h 70% 0 mm
12:54 20.1 °C 14.7 °C 1012.1 hPa WSW 11.3 km/h 27.4 km/h 71% 0 mm
12:59 20.1 °C 14.7 °C 1012.1 hPa West 9.7 km/h 25.7 km/h 71% 0 mm
13:05 20.3 °C 14.9 °C 1012.1 hPa SSW 8 km/h 19.3 km/h 71% 0 mm
13:10 20.4 °C 14.7 °C 1012.1 hPa SW 14.5 km/h 25.7 km/h 70% 0 mm
13:15 20.3 °C 14.4 °C 1012.1 hPa WSW 6.4 km/h 27.4 km/h 69% 0 mm
13:19 20.3 °C 14.7 °C 1012.1 hPa WSW 9.7 km/h 27.4 km/h 70% 0 mm
13:24 20.3 °C 14.6 °C 1012.1 hPa WSW 8 km/h 22.5 km/h 70% 0 mm
13:29 20.3 °C 14.4 °C 1012.1 hPa WSW 9.7 km/h 22.5 km/h 69% 0 mm
13:35 20.3 °C 14.4 °C 1012.1 hPa WSW 9.7 km/h 20.9 km/h 69% 0 mm
13:39 20.4 °C 14.8 °C 1012.1 hPa West 9.7 km/h 19.3 km/h 70% 0 mm
13:44 20.7 °C 14.8 °C 1012.1 hPa WSW 11.3 km/h 25.7 km/h 69% 0 mm
13:49 20.7 °C 15.1 °C 1012.1 hPa SW 6.4 km/h 19.3 km/h 70% 0 mm
13:54 20.8 °C 15.2 °C 1012.1 hPa WSW 6.4 km/h 20.9 km/h 70% 0 mm
13:59 21.3 °C 15.4 °C 1012.1 hPa SW 8 km/h 17.7 km/h 69% 0 mm
14:05 21.4 °C 15.7 °C 1012.1 hPa SW 8 km/h 16.1 km/h 70% 0 mm
14:10 21 °C 15.1 °C 1012.1 hPa WNW 9.7 km/h 25.7 km/h 69% 0 mm
14:14 20.7 °C 15.1 °C 1012.1 hPa WSW 11.3 km/h 25.7 km/h 70% 0 mm
14:19 20.8 °C 15.4 °C 1012.1 hPa WSW 9.7 km/h 20.9 km/h 71% 0 mm
14:25 20.7 °C 15.1 °C 1012.4 hPa WSW 9.7 km/h 27.4 km/h 70% 0 mm
14:30 20.7 °C 15.1 °C 1012.1 hPa West 11.3 km/h 27.4 km/h 70% 0 mm
14:34 20.8 °C 15.2 °C 1012.1 hPa WSW 11.3 km/h 24.1 km/h 70% 0 mm
14:35 20.8 °C 15.2 °C 1012.1 hPa West 9.7 km/h 22.5 km/h 70% 0 mm
14:40 20.9 °C 15.3 °C 1012.4 hPa WSW 11.3 km/h 22.5 km/h 70% 0 mm
14:49 20.6 °C 14.9 °C 1012.1 hPa WSW 12.9 km/h 24.1 km/h 70% 0 mm
14:54 21 °C 15.3 °C 1012.1 hPa West 16.1 km/h 16.1 km/h 70% 0 mm
14:59 21.7 °C 15.5 °C 1012.1 hPa WSW 8 km/h 17.7 km/h 68% 0 mm
15:04 21.5 °C 15.1 °C 1012.1 hPa SW 3.2 km/h 20.9 km/h 67% 0 mm
15:14 21.4 °C 15.2 °C 1012.1 hPa WSW 11.3 km/h 19.3 km/h 68% 0 mm
15:19 21.2 °C 15.3 °C 1012.1 hPa SW 11.3 km/h 20.9 km/h 69% 0 mm
15:24 21.1 °C 15.4 °C 1012.1 hPa SW 9.7 km/h 20.9 km/h 70% 0 mm
15:29 21.5 °C 15.3 °C 1012.4 hPa SW 9.7 km/h 17.7 km/h 68% 0 mm
15:34 21.4 °C 15.1 °C 1012.4 hPa WSW 9.7 km/h 19.3 km/h 67% 0 mm
15:40 21.3 °C 14.9 °C 1012.4 hPa WSW 8 km/h 22.5 km/h 67% 0 mm
15:45 20.8 °C 14.7 °C 1012.1 hPa WSW 12.9 km/h 20.9 km/h 68% 0 mm
15:49 20.6 °C 14.7 °C 1012.1 hPa SW 11.3 km/h 24.1 km/h 69% 0 mm
15:54 20.4 °C 14.5 °C 1012.4 hPa SW 16.1 km/h 19.3 km/h 69% 0 mm
16:04 20.7 °C 15.5 °C 1012.1 hPa SSW 11.3 km/h 19.3 km/h 72% 0 mm
16:09 20.6 °C 14.9 °C 1012.4 hPa West 6.4 km/h 17.7 km/h 70% 0 mm
16:14 20.3 °C 14.9 °C 1012.1 hPa WSW 16.1 km/h 16.1 km/h 71% 0 mm
16:19 20.1 °C 14.8 °C 1012.1 hPa SW 8 km/h 19.3 km/h 72% 0 mm
16:24 20.1 °C 14.9 °C 1012.1 hPa SW 8 km/h 19.3 km/h 72% 0 mm
16:29 20.1 °C 14.8 °C 1012.1 hPa SW 8 km/h 17.7 km/h 72% 0 mm
16:34 20.1 °C 14.8 °C 1012.1 hPa SW 8 km/h 17.7 km/h 72% 0 mm
16:39 19.9 °C 14.7 °C 1012.1 hPa WSW 14.5 km/h 14.5 km/h 72% 0 mm
16:44 19.9 °C 14.7 °C 1012.1 hPa SW 8 km/h 17.7 km/h 72% 0 mm
16:50 19.9 °C 15.1 °C 1012.1 hPa SSW 11.3 km/h 17.7 km/h 74% 0 mm
16:59 19.8 °C 15.3 °C 1012.1 hPa WSW 9.7 km/h 19.3 km/h 75% 0 mm
17:04 19.7 °C 15.4 °C 1012.1 hPa SW 9.7 km/h 19.3 km/h 76% 0 mm
17:09 19.7 °C 15.3 °C 1012.4 hPa SW 16.1 km/h 19.3 km/h 76% 0 mm
17:14 19.6 °C 15.3 °C 1012.1 hPa SSW 4.8 km/h 16.1 km/h 76% 0 mm
17:19 19.6 °C 15.4 °C 1012.4 hPa WSW 9.7 km/h 16.1 km/h 77% 0 mm
17:24 19.6 °C 15.2 °C 1012.4 hPa SW 8 km/h 16.1 km/h 76% 0 mm
17:29 19.5 °C 15.2 °C 1012.4 hPa SW 9.7 km/h 17.7 km/h 76% 0 mm
17:34 19.4 °C 15.3 °C 1012.4 hPa SW 9.7 km/h 19.3 km/h 77% 0 mm
17:39 19.4 °C 15.3 °C 1012.4 hPa SW 9.7 km/h 19.3 km/h 77% 0 mm
17:45 19.3 °C 15.4 °C 1012.4 hPa WSW 8 km/h 20.9 km/h 78% 0 mm
17:50 19.3 °C 15.6 °C 1012.4 hPa SW 1.6 km/h 11.3 km/h 79% 0 mm
17:54 19.3 °C 15.6 °C 1012.4 hPa SW 4.8 km/h 12.9 km/h 79% 0 mm
17:59 19.2 °C 15.2 °C 1012.4 hPa WSW 6.4 km/h 14.5 km/h 78% 0 mm
18:04 19.2 °C 15.2 °C 1012.4 hPa WSW 6.4 km/h 14.5 km/h 78% 0 mm
18:09 19.1 °C 15.2 °C 1012.4 hPa SW 9.7 km/h 14.5 km/h 78% 0 mm
18:14 19.1 °C 15.1 °C 1012.4 hPa SW 4.8 km/h 12.9 km/h 78% 0 mm
18:19 19 °C 15.3 °C 1012.4 hPa WSW 6.4 km/h 9.7 km/h 79% 0 mm
18:24 18.8 °C 15.1 °C 1012.1 hPa WSW 3.2 km/h 9.7 km/h 79% 0 mm
18:29 18.8 °C 14.8 °C 1012.1 hPa WSW 3.2 km/h 11.3 km/h 78% 0 mm
18:34 18.7 °C 14.8 °C 1012.1 hPa WSW 3.2 km/h 11.3 km/h 78% 0 mm
18:39 18.7 °C 14.6 °C 1012.1 hPa Calm   8 km/h 77% 0 mm
18:44 18.6 °C 14.7 °C 1012.4 hPa SSW 1.6 km/h 8 km/h 78% 0 mm
18:49 18.6 °C 14.7 °C 1012.4 hPa Calm   4.8 km/h 78% 0 mm
18:54 18.4 °C 14.7 °C 1012.4 hPa Calm     79% 0 mm
18:59 18.3 °C 14.8 °C 1012.4 hPa Calm   4.8 km/h 80% 0 mm
19:09 18.2 °C 14.9 °C 1012.4 hPa SW 1.6 km/h 4.8 km/h 81% 0 mm
19:14 18.2 °C 15.1 °C 1012.4 hPa Calm   3.2 km/h 82% 0 mm
19:19 18.2 °C 15.1 °C 1012.4 hPa Calm     82% 0 mm
19:24 18.1 °C 14.9 °C 1012.4 hPa Calm     82% 0 mm
19:29 17.9 °C 14.8 °C 1012.4 hPa Calm     82% 0 mm
19:34 17.9 °C 14.9 °C 1012.1 hPa Calm     83% 0 mm
19:39 17.8 °C 14.9 °C 1012.1 hPa Calm     83% 0 mm
19:44 17.7 °C 14.7 °C 1012.1 hPa Calm     83% 0 mm
19:49 17.6 °C 14.8 °C 1012.1 hPa Calm     84% 0 mm
19:54 17.4 °C 14.7 °C 1012.1 hPa Calm     84% 0 mm
19:59 17.4 °C 14.8 °C 1012.4 hPa Calm     85% 0 mm
20:04 17.4 °C 14.9 °C 1012.1 hPa Calm     85% 0 mm
20:09 17.4 °C 14.9 °C 1012.1 hPa Calm     85% 0 mm
20:14 17.4 °C 14.8 °C 1012.4 hPa Calm     85% 0 mm
20:19 17.3 °C 14.8 °C 1012.4 hPa Calm     85% 0 mm
20:24 17.2 °C 14.7 °C 1012.4 hPa Calm     85% 0 mm
20:29 17.1 °C 14.6 °C 1012.4 hPa Calm     85% 0 mm
20:34 17.1 °C 14.7 °C 1012.4 hPa Calm     86% 0 mm
20:39 16.9 °C 14.6 °C 1012.4 hPa Calm     86% 0 mm
20:44 16.8 °C 14.5 °C 1012.8 hPa Calm     86% 0 mm
20:54 16.7 °C 14.6 °C 1012.8 hPa Calm     87% 0 mm
20:59 16.7 °C 14.5 °C 1012.8 hPa Calm     87% 0 mm
21:04 16.7 °C 14.5 °C 1012.8 hPa Calm     87% 0 mm
21:14 16.7 °C 14.7 °C 1012.8 hPa Calm     88% 0 mm
21:19 16.6 °C 14.6 °C 1012.8 hPa Calm     88% 0 mm
21:24 16.6 °C 14.6 °C 1012.8 hPa Calm     88% 0 mm
21:29 16.6 °C 14.4 °C 1012.8 hPa Calm     87% 0 mm
21:34 16.6 °C 14.6 °C 1012.8 hPa Calm     88% 0 mm
21:39 16.7 °C 14.7 °C 1012.4 hPa Calm     88% 0 mm
21:44 16.7 °C 14.7 °C 1012.4 hPa Calm     88% 0 mm
21:49 16.7 °C 14.5 °C 1012.4 hPa Calm     87% 0 mm
21:54 16.6 °C 14.4 °C 1012.4 hPa Calm     87% 0 mm
21:59 16.6 °C 14.6 °C 1012.4 hPa Calm     88% 0 mm
22:04 16.6 °C 14.4 °C 1012.4 hPa Calm     87% 0 mm
22:09 16.6 °C 14.4 °C 1012.4 hPa Calm     87% 0 mm
22:14 16.6 °C 14.6 °C 1012.4 hPa Calm     88% 0 mm
22:19 16.7 °C 14.5 °C 1012.4 hPa Calm     87% 0 mm
22:24 16.7 °C 14.6 °C 1012.4 hPa Calm     87% 0 mm
22:29 16.8 °C 14.6 °C 1012.4 hPa Calm     87% 0 mm
22:34 16.8 °C 14.4 °C 1012.4 hPa Calm     86% 0 mm
22:39 16.8 °C 14.5 °C 1012.4 hPa Calm     86% 0 mm
22:44 16.9 °C 14.6 °C 1012.4 hPa Calm     86% 0 mm
22:49 16.9 °C 14.6 °C 1012.4 hPa Calm     86% 0 mm
22:54 16.9 °C 14.6 °C 1012.4 hPa Calm     86% 0 mm
22:59 16.9 °C 14.4 °C 1012.1 hPa Calm     85% 0 mm
23:04 17 °C 14.4 °C 1012.1 hPa Calm     85% 0 mm
23:09 17 °C 14.4 °C 1012.1 hPa Calm     85% 0 mm
23:19 17.1 °C 14.4 °C 1012.1 hPa Calm     84% 0 mm
23:25 17.2 °C 14.4 °C 1012.1 hPa Calm     84% 0 mm
23:29 17.2 °C 14.4 °C 1012.1 hPa Calm     84% 0 mm
23:34 17.2 °C 14.4 °C 1012.1 hPa Calm     84% 0 mm
23:39 17.2 °C 14.3 °C 1012.1 hPa Calm     83% 0 mm
23:44 17.2 °C 14.3 °C 1012.1 hPa Calm     83% 0 mm
23:49 17.3 °C 14.4 °C 1012.1 hPa Calm     83% 0 mm
23:54 17.3 °C 14.4 °C 1012.1 hPa Calm     83% 0 mm
23:59 17.3 °C 14.4 °C 1012.1 hPa Calm     83% 0 mm
Buffalo, New York, USA
Compliments of Weather Underground - 2.25 mb